createdAt,value
2022-12-31T00:02:27.073Z,7.63
2022-12-31T00:04:57.126Z,7.65
2022-12-31T00:08:08.818Z,7.70
2022-12-31T00:10:54.928Z,7.72
2022-12-31T00:17:29.751Z,7.80
2022-12-31T00:19:56.694Z,7.78
2022-12-31T00:22:30.477Z,7.80
2022-12-31T00:25:00.467Z,7.82
2022-12-31T00:27:56.211Z,7.81
2022-12-31T00:30:26.287Z,7.83
2022-12-31T00:32:55.995Z,7.88
2022-12-31T00:35:22.798Z,7.89
2022-12-31T00:40:58.072Z,7.89
2022-12-31T00:44:32.882Z,7.93
2022-12-31T00:47:52.326Z,7.97
2022-12-31T00:50:41.329Z,7.97
2022-12-31T01:01:10.613Z,7.92
2022-12-31T01:11:00.318Z,7.87
2022-12-31T01:24:37.098Z,7.91
2022-12-31T01:27:18.933Z,7.91
2022-12-31T02:10:10.329Z,8.06
2022-12-31T02:21:29.519Z,8.08
2022-12-31T02:24:18.425Z,8.12
2022-12-31T02:27:11.251Z,8.14
2022-12-31T02:30:02.331Z,8.14
2022-12-31T02:33:09.158Z,8.19
2022-12-31T02:36:12.471Z,8.22
2022-12-31T02:38:45.282Z,8.24
2022-12-31T02:41:48.499Z,8.26
2022-12-31T02:44:42.176Z,8.22
2022-12-31T02:47:09.372Z,8.32
2022-12-31T02:49:59.344Z,8.33
2022-12-31T02:57:21.548Z,8.39
2022-12-31T03:00:45.843Z,8.43
2022-12-31T03:03:49.880Z,8.50
2022-12-31T03:06:30.480Z,8.50
2022-12-31T03:17:45.353Z,8.54
2022-12-31T03:20:58.841Z,8.60
2022-12-31T03:24:19.058Z,8.59
2022-12-31T03:34:10.952Z,8.49
2022-12-31T03:36:43.179Z,8.45
2022-12-31T03:40:16.262Z,8.40
2022-12-31T03:42:58.167Z,8.45
2022-12-31T03:45:43.404Z,8.41
2022-12-31T03:48:35.536Z,8.41
2022-12-31T03:51:52.148Z,8.42
2022-12-31T03:54:53.811Z,8.40
2022-12-31T03:58:09.328Z,8.49
2022-12-31T04:00:52.181Z,8.51
2022-12-31T04:06:31.036Z,8.58
2022-12-31T04:09:06.010Z,8.62
2022-12-31T04:11:49.403Z,8.62
2022-12-31T04:15:16.314Z,8.63
2022-12-31T04:19:01.934Z,8.63
2022-12-31T04:22:18.649Z,8.67
2022-12-31T04:36:27.588Z,8.80
2022-12-31T05:32:28.419Z,9.22
2022-12-31T05:34:55.402Z,9.31
2022-12-31T05:37:22.542Z,9.33
2022-12-31T05:39:49.548Z,9.33
2022-12-31T05:42:16.331Z,9.33
2022-12-31T05:44:43.147Z,9.36
2022-12-31T05:47:09.933Z,9.37
2022-12-31T05:49:36.687Z,9.43
2022-12-31T05:52:06.916Z,9.42
2022-12-31T05:54:33.882Z,9.42
2022-12-31T05:57:00.935Z,9.45
2022-12-31T05:59:30.464Z,9.48
2022-12-31T06:01:59.836Z,9.46
2022-12-31T06:04:27.712Z,9.44
2022-12-31T06:06:54.509Z,9.42
2022-12-31T06:09:21.317Z,9.43
2022-12-31T06:11:48.224Z,9.39
2022-12-31T06:14:40.810Z,9.42
2022-12-31T06:17:13.170Z,9.40
2022-12-31T06:23:06.573Z,9.60
2022-12-31T06:25:35.474Z,9.70
2022-12-31T06:28:04.475Z,9.80
2022-12-31T06:30:31.284Z,9.79
2022-12-31T06:37:00.646Z,9.70
2022-12-31T06:46:48.317Z,9.66
2022-12-31T06:49:15.997Z,9.73
2022-12-31T06:51:42.812Z,9.79
2022-12-31T06:54:09.502Z,9.87
2022-12-31T06:56:36.397Z,9.85
2022-12-31T06:59:03.837Z,9.87
2022-12-31T07:01:36.826Z,9.92
2022-12-31T07:04:25.777Z,9.93
2022-12-31T07:07:04.747Z,9.96
2022-12-31T07:09:38.599Z,10.00
2022-12-31T07:12:14.203Z,10.06
2022-12-31T07:14:49.754Z,10.11
2022-12-31T07:17:28.689Z,10.17
2022-12-31T07:20:13.221Z,10.22
2022-12-31T07:22:40.722Z,10.26
2022-12-31T07:25:13.149Z,10.30
2022-12-31T07:27:52.663Z,10.29
2022-12-31T07:30:25.392Z,10.34
2022-12-31T07:33:02.871Z,10.41
2022-12-31T07:36:01.422Z,10.47
2022-12-31T07:38:46.164Z,10.49
2022-12-31T07:41:18.165Z,10.51
2022-12-31T07:43:58.649Z,10.55
2022-12-31T07:46:53.084Z,10.62
2022-12-31T07:49:20.180Z,10.72
2022-12-31T07:51:53.245Z,10.68
2022-12-31T07:56:27.394Z,10.82
2022-12-31T07:59:25.100Z,10.85
2022-12-31T08:02:31.755Z,10.91
2022-12-31T08:05:37.209Z,10.94
2022-12-31T08:08:36.265Z,11.01
2022-12-31T08:11:14.924Z,11.15
2022-12-31T08:13:42.684Z,11.17
2022-12-31T08:16:26.078Z,11.23
2022-12-31T08:19:14.728Z,11.27
2022-12-31T08:22:00.095Z,11.39
2022-12-31T08:25:04.830Z,11.35
2022-12-31T08:27:53.208Z,11.35
2022-12-31T08:30:38.449Z,11.35
2022-12-31T08:33:18.491Z,11.45
2022-12-31T08:36:05.108Z,11.49
2022-12-31T08:39:12.205Z,11.68
2022-12-31T08:41:53.634Z,11.71
2022-12-31T08:44:39.147Z,11.69
2022-12-31T08:47:23.037Z,11.71
2022-12-31T08:52:40.902Z,11.68
2022-12-31T08:55:08.473Z,11.72
2022-12-31T08:57:42.774Z,11.71
2022-12-31T09:00:18.172Z,11.80
2022-12-31T09:03:00.892Z,11.91
2022-12-31T09:05:54.267Z,11.97
2022-12-31T09:08:48.879Z,11.92
2022-12-31T09:11:37.297Z,11.92
2022-12-31T09:14:34.830Z,11.97
2022-12-31T09:17:07.794Z,12.14
2022-12-31T09:19:37.034Z,12.22
2022-12-31T09:22:26.650Z,12.11
2022-12-31T09:24:55.312Z,12.10
2022-12-31T09:28:05.520Z,12.17
2022-12-31T09:30:51.691Z,12.20
2022-12-31T09:33:59.918Z,12.20
2022-12-31T09:36:46.596Z,12.21
2022-12-31T09:39:36.791Z,12.34
2022-12-31T09:42:31.292Z,12.26
2022-12-31T09:45:31.054Z,12.29
2022-12-31T09:48:16.463Z,12.24
2022-12-31T09:51:38.306Z,12.39
2022-12-31T09:54:34.151Z,12.44
2022-12-31T09:57:24.709Z,12.48
2022-12-31T10:00:48.729Z,12.43
2022-12-31T10:03:22.313Z,12.51
2022-12-31T10:05:56.598Z,12.43
2022-12-31T10:08:32.618Z,12.32
2022-12-31T10:11:05.557Z,12.33
2022-12-31T10:13:54.933Z,12.33
2022-12-31T10:16:28.740Z,12.31
2022-12-31T10:19:21.149Z,12.27
2022-12-31T10:22:26.939Z,12.26
2022-12-31T10:25:18.474Z,12.27
2022-12-31T10:28:09.972Z,12.23
2022-12-31T10:30:39.692Z,12.16
2022-12-31T10:33:35.573Z,12.14
2022-12-31T10:36:14.404Z,12.11
2022-12-31T10:39:15.393Z,12.11
2022-12-31T10:42:12.350Z,12.09
2022-12-31T10:45:09.156Z,12.13
2022-12-31T10:48:03.954Z,12.15
2022-12-31T10:50:39.671Z,12.20
2022-12-31T10:53:18.431Z,12.18
2022-12-31T10:56:12.475Z,12.20
2022-12-31T10:59:02.157Z,12.25
2022-12-31T11:01:49.027Z,12.27
2022-12-31T11:04:34.734Z,12.24
2022-12-31T11:07:40.759Z,12.19
2022-12-31T11:10:48.974Z,12.12
2022-12-31T11:13:35.453Z,12.13
2022-12-31T11:16:07.716Z,12.11
2022-12-31T11:19:01.159Z,12.08
2022-12-31T11:22:01.963Z,12.09
2022-12-31T11:24:43.680Z,12.11
2022-12-31T11:31:59.292Z,12.05
2022-12-31T11:34:41.132Z,12.12
2022-12-31T11:37:47.524Z,12.15
2022-12-31T11:40:14.413Z,12.19
2022-12-31T11:42:52.456Z,12.25
2022-12-31T11:45:51.943Z,12.27
2022-12-31T11:48:35.822Z,12.33
2022-12-31T11:51:21.477Z,12.35
2022-12-31T11:54:17.995Z,12.44
2022-12-31T11:56:50.598Z,12.41
2022-12-31T11:59:19.839Z,12.36
2022-12-31T12:02:01.643Z,12.38
2022-12-31T12:04:28.403Z,12.37
2022-12-31T12:06:55.498Z,12.45
2022-12-31T12:09:29.124Z,12.52
2022-12-31T12:12:05.186Z,12.50
2022-12-31T12:14:41.257Z,12.57
2022-12-31T12:17:19.232Z,12.52
2022-12-31T12:19:53.539Z,12.61
2022-12-31T12:22:25.675Z,12.56
2022-12-31T12:24:58.520Z,12.58
2022-12-31T12:27:29.481Z,12.56
2022-12-31T12:29:56.538Z,12.60
2022-12-31T12:32:29.014Z,12.78
2022-12-31T12:34:58.078Z,12.83
2022-12-31T12:37:26.247Z,13.06
2022-12-31T12:40:03.520Z,13.16
2022-12-31T12:42:30.638Z,13.21
2022-12-31T12:45:02.538Z,13.23
2022-12-31T12:47:38.164Z,13.39
2022-12-31T12:50:35.470Z,13.41
2022-12-31T12:53:15.779Z,13.51
2022-12-31T12:56:06.516Z,13.51
2022-12-31T12:58:42.353Z,13.60
2022-12-31T13:01:36.852Z,13.85
2022-12-31T13:04:37.130Z,13.93
2022-12-31T13:07:19.395Z,13.92
2022-12-31T13:10:16.017Z,14.04
2022-12-31T13:13:22.722Z,14.04
2022-12-31T13:15:52.526Z,14.26
2022-12-31T13:18:58.351Z,14.11
2022-12-31T13:21:43.905Z,14.15
2022-12-31T13:24:22.518Z,14.13
2022-12-31T13:27:01.013Z,14.09
2022-12-31T13:29:29.571Z,14.12
2022-12-31T13:32:07.874Z,14.18
2022-12-31T13:34:37.935Z,14.17
2022-12-31T13:37:23.018Z,14.29
2022-12-31T13:40:00.221Z,14.20
2022-12-31T13:42:44.237Z,14.26
2022-12-31T13:45:13.979Z,14.37
2022-12-31T13:47:57.409Z,14.33
2022-12-31T13:50:41.146Z,14.34
2022-12-31T13:53:22.212Z,14.32
2022-12-31T13:56:28.877Z,14.41
2022-12-31T13:59:05.039Z,14.30
2022-12-31T14:01:39.727Z,14.34
2022-12-31T14:04:17.360Z,14.40
2022-12-31T14:06:49.777Z,14.40
2022-12-31T14:09:24.056Z,14.33
2022-12-31T14:12:17.966Z,14.33
2022-12-31T14:15:11.756Z,14.63
2022-12-31T14:18:01.014Z,14.61
2022-12-31T14:20:39.781Z,14.86
2022-12-31T14:23:45.535Z,15.01
2022-12-31T14:26:21.545Z,15.06
2022-12-31T14:28:52.253Z,15.01
2022-12-31T14:31:38.126Z,14.75
2022-12-31T14:34:22.241Z,14.57
2022-12-31T14:37:11.985Z,14.42
2022-12-31T14:39:57.123Z,14.34
2022-12-31T14:42:31.855Z,14.29
2022-12-31T14:45:25.183Z,14.17
2022-12-31T14:48:26.493Z,14.09
2022-12-31T14:50:54.057Z,14.00
2022-12-31T14:53:27.282Z,14.00
2022-12-31T14:56:06.636Z,13.94
2022-12-31T14:58:43.468Z,13.85
2022-12-31T15:01:42.729Z,13.78
2022-12-31T15:04:47.698Z,13.71
2022-12-31T15:08:05.129Z,13.68
2022-12-31T15:11:10.634Z,13.73
2022-12-31T15:13:57.161Z,13.69
2022-12-31T15:16:52.321Z,13.60
2022-12-31T15:19:19.126Z,13.72
2022-12-31T15:21:54.962Z,13.77
2022-12-31T15:24:24.175Z,13.90
2022-12-31T15:27:06.682Z,13.76
2022-12-31T15:29:44.793Z,13.82
2022-12-31T15:32:19.860Z,13.86
2022-12-31T15:34:48.053Z,13.84
2022-12-31T15:42:41.377Z,13.79
2022-12-31T15:46:38.584Z,13.95
2022-12-31T15:53:11.263Z,14.00
2022-12-31T15:55:51.391Z,14.11
2022-12-31T16:02:09.010Z,13.84
2022-12-31T16:05:31.157Z,13.83
2022-12-31T16:12:39.461Z,13.87
2022-12-31T16:25:02.670Z,13.91
2022-12-31T16:27:40.481Z,13.87
2022-12-31T16:30:24.787Z,13.93
2022-12-31T16:33:41.195Z,13.93
2022-12-31T16:37:43.506Z,13.87
2022-12-31T16:41:03.678Z,13.82
2022-12-31T16:43:41.766Z,13.90
2022-12-31T16:46:16.133Z,13.87
2022-12-31T16:48:48.679Z,13.93
2022-12-31T16:51:23.080Z,14.01
2022-12-31T16:54:18.666Z,13.99
2022-12-31T16:57:40.221Z,14.05
2022-12-31T17:02:22.475Z,14.14
2022-12-31T17:07:33.757Z,14.23
2022-12-31T17:14:35.212Z,14.26
2022-12-31T17:17:28.693Z,14.25
2022-12-31T17:50:31.686Z,14.45
2022-12-31T17:53:12.485Z,14.48
2022-12-31T17:55:39.264Z,14.36
2022-12-31T17:58:06.709Z,14.51
2022-12-31T18:00:34.282Z,14.45
2022-12-31T18:03:01.043Z,14.50
2022-12-31T18:05:27.722Z,14.61
2022-12-31T18:07:54.803Z,14.52
2022-12-31T18:10:23.194Z,14.47
2022-12-31T18:12:56.184Z,14.47
2022-12-31T18:15:24.536Z,14.57
2022-12-31T18:17:51.373Z,14.57
2022-12-31T18:20:18.675Z,14.76
2022-12-31T18:22:45.684Z,14.67
2022-12-31T18:25:23.717Z,14.64
2022-12-31T18:27:51.698Z,14.72
2022-12-31T18:30:19.007Z,14.65
2022-12-31T18:32:46.789Z,14.56
2022-12-31T18:36:07.004Z,14.53
2022-12-31T18:38:16.971Z,14.52
2022-12-31T18:40:50.102Z,14.52
2022-12-31T18:43:18.409Z,14.52
2022-12-31T18:45:46.418Z,14.52
2022-12-31T18:48:13.513Z,14.52
2022-12-31T18:50:43.044Z,14.58
2022-12-31T18:53:21.609Z,14.47
2022-12-31T18:55:54.426Z,14.45
2022-12-31T18:58:21.793Z,14.45
2022-12-31T19:00:49.275Z,14.56
2022-12-31T19:03:23.935Z,14.43
2022-12-31T19:05:52.059Z,14.38
2022-12-31T19:08:22.995Z,14.44
2022-12-31T19:10:51.206Z,14.39
2022-12-31T19:13:19.690Z,14.42
2022-12-31T19:15:47.273Z,14.38
2022-12-31T19:18:14.070Z,14.43
2022-12-31T19:20:41.237Z,14.39
2022-12-31T19:23:18.038Z,14.34
2022-12-31T19:25:45.898Z,14.35
2022-12-31T19:28:24.238Z,14.30
2022-12-31T19:30:51.567Z,14.35
2022-12-31T19:33:19.049Z,14.29
2022-12-31T19:35:46.445Z,14.29
2022-12-31T19:38:23.264Z,14.31
2022-12-31T19:40:51.027Z,14.31
2022-12-31T19:43:19.849Z,14.30
2022-12-31T19:45:46.822Z,14.32
2022-12-31T19:48:17.316Z,14.27
2022-12-31T19:50:49.359Z,14.25
2022-12-31T19:53:22.021Z,14.26
2022-12-31T19:55:49.251Z,14.18
2022-12-31T19:58:21.539Z,14.17
2022-12-31T20:00:55.598Z,14.22
2022-12-31T20:03:25.530Z,14.20
2022-12-31T20:06:01.113Z,14.20
2022-12-31T20:08:27.905Z,14.17
2022-12-31T20:10:58.863Z,14.17
2022-12-31T20:13:27.168Z,14.17
2022-12-31T20:15:54.368Z,14.16
2022-12-31T20:18:23.071Z,14.13
2022-12-31T20:20:55.553Z,14.18
2022-12-31T20:23:22.942Z,14.17
2022-12-31T20:25:59.803Z,14.16
2022-12-31T20:28:27.147Z,14.21
2022-12-31T20:30:53.954Z,14.26
2022-12-31T20:33:20.833Z,14.24
2022-12-31T20:35:47.647Z,14.22
2022-12-31T20:38:14.949Z,14.24
2022-12-31T20:40:46.724Z,14.30
2022-12-31T20:43:14.380Z,14.28
2022-12-31T20:45:41.757Z,14.33
2022-12-31T20:48:08.872Z,14.30
2022-12-31T20:50:37.924Z,14.33
2022-12-31T20:53:04.866Z,14.31
2022-12-31T20:55:34.975Z,14.35
2022-12-31T20:58:01.891Z,14.34
2022-12-31T21:00:28.652Z,14.34
2022-12-31T21:03:04.100Z,14.38
2022-12-31T21:05:35.269Z,14.38
2022-12-31T21:08:02.174Z,14.45
2022-12-31T21:10:28.943Z,14.40
2022-12-31T21:12:55.684Z,14.39
2022-12-31T21:15:24.923Z,14.39
2022-12-31T21:17:51.823Z,14.40
2022-12-31T21:20:18.549Z,14.38
2022-12-31T21:22:45.370Z,14.41
2022-12-31T21:25:12.190Z,14.38
2022-12-31T21:27:39.333Z,14.44
2022-12-31T21:30:21.835Z,14.45
2022-12-31T21:32:48.696Z,14.52
2022-12-31T21:35:41.650Z,14.47
2022-12-31T21:38:04.021Z,14.50
2022-12-31T21:40:31.468Z,14.57
2022-12-31T21:42:58.597Z,14.54
2022-12-31T21:45:25.379Z,14.48
2022-12-31T21:48:10.915Z,14.49
2022-12-31T21:50:37.708Z,14.49
2022-12-31T21:53:04.498Z,14.54
2022-12-31T21:55:50.071Z,14.55
2022-12-31T21:58:26.422Z,14.54
2022-12-31T22:01:13.395Z,14.48
2022-12-31T22:03:40.744Z,14.48
2022-12-31T22:06:12.654Z,14.53
2022-12-31T22:08:40.752Z,14.49
2022-12-31T22:11:08.121Z,14.53
2022-12-31T22:13:37.022Z,14.55
2022-12-31T22:16:06.073Z,14.55
2022-12-31T22:18:35.630Z,14.54
2022-12-31T22:21:04.062Z,14.57
2022-12-31T22:23:32.040Z,14.53
2022-12-31T22:25:59.089Z,14.49
2022-12-31T22:28:41.385Z,14.52
2022-12-31T22:31:10.177Z,14.55
2022-12-31T22:33:37.131Z,14.53
2022-12-31T22:36:11.044Z,14.57
2022-12-31T22:38:37.774Z,14.61
2022-12-31T22:41:11.114Z,14.58
2022-12-31T22:43:40.663Z,14.53
2022-12-31T22:46:16.850Z,14.50
2022-12-31T22:48:43.614Z,14.50
2022-12-31T22:51:11.654Z,14.52
2022-12-31T22:53:39.981Z,14.51
2022-12-31T22:56:08.591Z,14.54
2022-12-31T22:58:35.438Z,14.50
2022-12-31T23:01:15.525Z,14.48
2022-12-31T23:03:42.469Z,14.47
2022-12-31T23:06:09.235Z,14.49
2022-12-31T23:08:35.997Z,14.49
2022-12-31T23:11:06.219Z,14.46
2022-12-31T23:14:00.168Z,14.43
2022-12-31T23:16:48.464Z,14.49
2022-12-31T23:19:34.817Z,14.50
2022-12-31T23:22:20.158Z,14.47
2022-12-31T23:24:46.978Z,14.46
2022-12-31T23:27:13.833Z,14.45
2022-12-31T23:29:46.516Z,14.46
2022-12-31T23:32:15.680Z,14.47
2022-12-31T23:34:43.356Z,14.43
2022-12-31T23:37:10.495Z,14.44
2022-12-31T23:39:37.311Z,14.40
2022-12-31T23:42:04.535Z,14.41
2022-12-31T23:44:31.290Z,14.36
2022-12-31T23:46:58.272Z,14.35
2022-12-31T23:49:25.869Z,14.38
2022-12-31T23:51:52.751Z,14.42
2022-12-31T23:54:19.546Z,14.39
2022-12-31T23:56:46.278Z,14.36
2022-12-31T23:59:13.296Z,14.41
